メインページ
METAR-TAF:

METAR-TAF

空港 :

ベルリン, ドイツ

ベルリン・テーゲル空港

緯度: 52-34N, 経度: 013-19E, 海抜: 37m

現時点の気象観測

当レポートは9分前の09:20(UTC)に作成
東/北東の風 5kt、から東/南東の間で変化する
気温 -5°C
湿度 58%
気圧 1033 hPa
視程10km以上
1,500メートル以下は雲なし、積乱雲なし

METAR: EDDT 250920Z 07005KT 010V110 CAVOK M05/M12 Q1033 NOSIG

時間: 10:29 (09:29 UTC)

予報

当レポートは4時間29分前の05:00(UTC)に作成
予報は25日の 06時(UTC)から 26日の 06時(UTC)まで有効
北東の風 6kt
視程10km以上
高度3000ftの雲はほとんどない
確率 30% :
25日の 21時(UTC)から 26日の 03時(UTC)まで一時的に
視程: 4500m
高度1100ftの千切れ雲あり
小雪

TAF: EDDT 250500Z 2506/2606 05006KT 9999 FEW030 PROB30 TEMPO 2521/2603 4500 -SN BKN011

4,000以上の空港の気象観測と天気予報(METAR報とTAF報)

利用可能な観測所は地図上に黄色い丸と赤い丸で示す。

丸の上にカーソルを重ねると観測所名を参照できる。

次にクリックすると気象観測と天気予報を参照できる。

マップの切り替え:黒色「×」印の緑ボタンをクリックして拡大、「-」印の緑ボタンをクリックして縮小、緑色の三角印をクリックして隣りの地図に切り替え


METAR-TAF: